Time;durP1;ratioP1;P1;durP2;ratioP2;P2;SDS_P1;SDS_P2;PMS_P1;PMS_P2;Temp;Humidity;BMP_temperature;BMP_pressure;BME280_temperature;BME280_humidity;BME280_pressure;Samples;Min_cycle;Max_cycle;Signal;HPM_P1;HPM_P2
2022/12/06 00:01:45;;;;;;;0.37;0.37;;;6.60;99.90;;;;;;5029600;28;20219;-87
2022/12/06 00:04:12;;;;;;;0.40;0.30;;;6.60;99.90;;;;;;5029585;28;20230;-86
2022/12/06 00:06:41;;;;;;;7.00;0.80;;;6.60;99.90;;;;;;5028180;28;20215;-87
2022/12/06 00:09:10;;;;;;;0.30;0.30;;;6.60;99.90;;;;;;5028334;28;20676;-89
2022/12/06 00:11:36;;;;;;;0.20;0.20;;;6.60;99.90;;;;;;5028019;28;20214;-87
2022/12/06 00:14:06;;;;;;;1.07;0.97;;;6.60;99.90;;;;;;5038194;28;20220;-87
2022/12/06 00:16:33;;;;;;;0.30;0.30;;;6.60;99.90;;;;;;5029039;28;20225;-86
2022/12/06 00:19:00;;;;;;;0.57;0.57;;;6.60;99.90;;;;;;5020651;28;20229;-86
2022/12/06 00:21:32;;;;;;;1.03;0.93;;;6.60;99.90;;;;;;5044852;28;20338;-92
2022/12/06 00:24:00;;;;;;;1.13;0.53;;;6.60;99.90;;;;;;5027695;28;20328;-88
2022/12/06 00:26:28;;;;;;;0.60;0.60;;;6.60;99.90;;;;;;5028742;28;20238;-92
2022/12/06 00:28:56;;;;;;;0.40;0.40;;;6.60;99.90;;;;;;5027378;28;20297;-89
2022/12/06 00:31:24;;;;;;;2.03;1.23;;;6.60;99.90;;;;;;5027831;28;20219;-85
2022/12/06 00:33:50;;;;;;;3.37;1.57;;;6.60;99.90;;;;;;5028147;28;20309;-85
2022/12/06 00:36:19;;;;;;;5.57;0.70;;;6.60;99.90;;;;;;5027408;28;20226;-88
2022/12/06 00:38:45;;;;;;;0.90;0.90;;;6.60;99.90;;;;;;5019316;28;20253;-88
2022/12/06 00:41:13;;;;;;;0.60;0.60;;;6.60;99.90;;;;;;5019074;28;20179;-87
2022/12/06 00:43:40;;;;;;;0.47;0.47;;;6.60;99.90;;;;;;5027613;28;20317;-87
2022/12/06 00:46:07;;;;;;;0.67;0.67;;;6.60;99.90;;;;;;5028936;28;20626;-86
2022/12/06 00:48:34;;;;;;;0.40;0.40;;;6.50;99.90;;;;;;5043370;28;20222;-90
2022/12/06 00:51:00;;;;;;;11.20;0.80;;;6.50;99.90;;;;;;5043702;28;20218;-86
2022/12/06 00:53:26;;;;;;;0.70;0.70;;;6.50;99.90;;;;;;5027170;28;20229;-86
2022/12/06 00:55:53;;;;;;;0.90;0.90;;;6.50;99.90;;;;;;5027968;28;20214;-87
2022/12/06 00:58:19;;;;;;;2.03;0.63;;;6.50;99.90;;;;;;5029207;28;20234;-86
2022/12/06 01:00:45;;;;;;;1.20;1.10;;;6.50;99.90;;;;;;5012763;28;20218;-87
2022/12/06 01:03:11;;;;;;;0.47;0.43;;;6.50;99.90;;;;;;5027296;28;20230;-88
2022/12/06 01:05:45;;;;;;;0.50;0.50;;;6.60;99.90;;;;;;5035621;28;20684;-86
2022/12/06 01:08:11;;;;;;;0.30;0.30;;;6.60;99.90;;;;;;5028053;28;20193;-83
2022/12/06 01:10:38;;;;;;;0.40;0.40;;;6.60;99.90;;;;;;5028684;28;20187;-87
2022/12/06 01:13:04;;;;;;;0.40;0.40;;;6.60;99.90;;;;;;5027503;28;20226;-86
2022/12/06 01:15:30;;;;;;;0.40;0.40;;;6.60;99.90;;;;;;5019122;28;20230;-87
2022/12/06 01:17:56;;;;;;;0.30;0.30;;;6.60;99.90;;;;;;5026656;28;20218;-87
2022/12/06 01:20:22;;;;;;;0.73;0.73;;;6.60;99.90;;;;;;5043611;28;20657;-89
2022/12/06 01:22:48;;;;;;;0.87;0.70;;;6.50;99.90;;;;;;5010558;28;20252;-89
2022/12/06 01:25:13;;;;;;;1.03;1.03;;;6.50;99.90;;;;;;5026658;28;20687;-90
2022/12/06 01:27:39;;;;;;;0.70;0.70;;;6.50;99.90;;;;;;5034134;28;20265;-85
2022/12/06 01:30:07;;;;;;;0.60;0.60;;;6.50;99.90;;;;;;5019706;28;21176;-89
2022/12/06 01:32:32;;;;;;;0.20;0.20;;;6.40;99.90;;;;;;5035680;28;20241;-85
2022/12/06 01:34:58;;;;;;;0.50;0.50;;;6.40;99.90;;;;;;5043768;28;20218;-86
2022/12/06 01:37:24;;;;;;;1.17;0.73;;;6.40;99.90;;;;;;5026665;28;20736;-87
2022/12/06 01:39:49;;;;;;;0.63;0.63;;;6.40;99.90;;;;;;5042681;28;20226;-90
2022/12/06 01:42:15;;;;;;;3.63;1.30;;;6.40;99.90;;;;;;5018987;28;20218;-87
2022/12/06 01:44:46;;;;;;;0.53;0.53;;;6.40;99.90;;;;;;5026521;28;20284;-87
2022/12/06 01:47:25;;;;;;;0.40;0.40;;;6.40;99.90;;;;;;5018001;28;20270;-85
2022/12/06 01:50:11;;;;;;;0.57;0.57;;;6.40;99.90;;;;;;5043111;28;20238;-88
2022/12/06 01:52:51;;;;;;;0.63;0.63;;;6.30;99.90;;;;;;5027130;28;20237;-87
2022/12/06 01:55:19;;;;;;;0.80;0.80;;;6.30;99.90;;;;;;5026238;28;20246;-93
2022/12/06 01:57:45;;;;;;;0.50;0.50;;;6.30;99.90;;;;;;5026823;28;20222;-88
2022/12/06 02:00:11;;;;;;;1.30;1.20;;;6.20;99.90;;;;;;5035152;28;20222;-86
2022/12/06 02:02:37;;;;;;;0.53;0.53;;;6.20;99.90;;;;;;5016675;28;20245;-86
2022/12/06 02:05:04;;;;;;;0.60;0.60;;;6.20;99.90;;;;;;5034542;28;20202;-87
2022/12/06 02:07:31;;;;;;;0.30;0.30;;;6.20;99.90;;;;;;5034401;28;20245;-87
2022/12/06 02:09:57;;;;;;;0.70;0.70;;;6.20;99.90;;;;;;5026314;28;20689;-86
2022/12/06 02:12:23;;;;;;;0.27;0.23;;;6.30;99.90;;;;;;5026058;28;20225;-87
2022/12/06 02:14:53;;;;;;;0.40;0.40;;;6.30;99.90;;;;;;5017228;28;20253;-86
2022/12/06 02:17:33;;;;;;;5.40;0.73;;;6.30;99.90;;;;;;5025058;28;20270;-85
2022/12/06 02:20:24;;;;;;;0.20;0.20;;;6.30;99.90;;;;;;5042636;28;20259;-88
2022/12/06 02:22:55;;;;;;;0.53;0.40;;;6.30;99.90;;;;;;5027531;28;20203;-87
2022/12/06 02:25:42;;;;;;;0.30;0.30;;;6.30;99.90;;;;;;5025735;28;20237;-87
2022/12/06 02:28:29;;;;;;;0.37;0.37;;;6.30;99.90;;;;;;5019009;28;20222;-87
2022/12/06 02:31:04;;;;;;;0.50;0.50;;;6.30;99.90;;;;;;5025783;28;20885;-88
2022/12/06 02:33:36;;;;;;;0.30;0.30;;;6.30;99.90;;;;;;5042575;28;20218;-89
2022/12/06 02:36:26;;;;;;;0.47;0.47;;;6.30;99.90;;;;;;5025992;28;20226;-84
2022/12/06 02:38:58;;;;;;;0.40;0.23;;;6.30;99.90;;;;;;5026649;28;20206;-85
2022/12/06 02:41:33;;;;;;;0.20;0.20;;;6.30;99.90;;;;;;5026685;28;20334;-87
2022/12/06 02:44:03;;;;;;;0.50;0.50;;;6.30;99.90;;;;;;5025090;28;20174;-86
2022/12/06 02:46:33;;;;;;;0.70;0.30;;;6.30;99.90;;;;;;5023820;28;20225;-87
2022/12/06 02:49:03;;;;;;;0.40;0.40;;;6.30;99.90;;;;;;5023272;28;20250;-86
2022/12/06 02:51:32;;;;;;;0.10;0.10;;;6.30;99.90;;;;;;5023486;28;20226;-87
2022/12/06 02:54:01;;;;;;;0.30;0.30;;;6.30;99.90;;;;;;5039102;28;20276;-84
2022/12/06 02:56:27;;;;;;;0.47;0.47;;;6.30;99.90;;;;;;5038701;28;20226;-86
2022/12/06 02:58:52;;;;;;;0.43;0.43;;;6.30;99.90;;;;;;5040057;28;20257;-85
2022/12/06 03:01:23;;;;;;;0.73;0.37;;;6.30;99.90;;;;;;5025209;28;20689;-89
2022/12/06 03:04:01;;;;;;;0.93;0.50;;;6.30;99.90;;;;;;5024323;28;20668;-90
2022/12/06 03:06:40;;;;;;;0.20;0.20;;;6.30;99.90;;;;;;5026203;28;20222;-85
2022/12/06 03:09:40;;;;;;;0.20;0.20;;;6.30;99.90;;;;;;5033035;28;20226;-88
2022/12/06 03:12:23;;;;;;;0.20;0.20;;;6.40;99.90;;;;;;5025971;28;20249;-86
2022/12/06 03:14:55;;;;;;;0.20;0.20;;;6.40;99.90;;;;;;5025698;28;20309;-86
2022/12/06 03:17:34;;;;;;;1.03;0.93;;;6.40;99.90;;;;;;5025894;28;20218;-86
2022/12/06 03:20:08;;;;;;;0.37;0.37;;;6.40;99.90;;;;;;5026729;28;20190;-86
2022/12/06 03:22:45;;;;;;;1.03;0.83;;;6.40;99.90;;;;;;5026791;28;20211;-86
2022/12/06 03:25:11;;;;;;;0.20;0.20;;;6.40;99.90;;;;;;5026338;28;20603;-91
2022/12/06 03:27:39;;;;;;;0.30;0.30;;;6.40;99.90;;;;;;5030066;28;20233;-85
2022/12/06 03:30:09;;;;;;;0.30;0.30;;;6.40;99.90;;;;;;5045234;28;20218;-86
2022/12/06 03:32:37;;;;;;;0.20;0.20;;;6.40;99.90;;;;;;5029422;28;20215;-85
2022/12/06 03:35:08;;;;;;;0.20;0.20;;;6.30;99.90;;;;;;5029102;28;20214;-87
2022/12/06 03:37:37;;;;;;;0.20;0.20;;;6.30;99.90;;;;;;5027033;28;20241;-85
2022/12/06 03:40:18;;;;;;;2.43;1.43;;;6.30;99.90;;;;;;5011020;28;20215;-85
2022/12/06 03:42:46;;;;;;;6.33;0.40;;;6.30;99.90;;;;;;5009830;28;20215;-84
2022/12/06 03:45:13;;;;;;;0.50;0.50;;;6.30;99.90;;;;;;5008252;28;20219;-85
2022/12/06 03:48:01;;;;;;;0.67;0.47;;;6.30;99.90;;;;;;5009622;28;20244;-84
2022/12/06 03:50:33;;;;;;;0.37;0.37;;;6.40;99.90;;;;;;5005372;28;20231;-89
2022/12/06 03:53:00;;;;;;;0.40;0.40;;;6.30;99.90;;;;;;5016462;28;20329;-86
2022/12/06 03:55:26;;;;;;;0.20;0.20;;;6.30;99.90;;;;;;5008554;28;20231;-87
2022/12/06 03:57:51;;;;;;;0.17;0.17;;;6.30;99.90;;;;;;5009086;28;20321;-85
2022/12/06 04:00:18;;;;;;;2.53;0.97;;;6.40;99.90;;;;;;5016535;28;20215;-87
2022/12/06 04:02:43;;;;;;;0.20;0.20;;;6.30;99.90;;;;;;5024079;28;20669;-88
2022/12/06 04:05:09;;;;;;;0.20;0.20;;;6.40;99.90;;;;;;5009627;28;20192;-87
2022/12/06 04:07:35;;;;;;;2.33;0.97;;;6.30;99.90;;;;;;4991872;28;20772;-85
2022/12/06 04:10:02;;;;;;;0.20;0.20;;;6.30;99.90;;;;;;5009720;28;20318;-87
2022/12/06 04:15:14;;;;;;;0.20;0.20;;;6.20;99.90;;;;;;5009225;28;20227;-86
2022/12/06 04:20:26;;;;;;;0.50;0.30;;;6.30;99.90;;;;;;5009251;28;20306;-86
2022/12/06 04:23:05;;;;;;;0.30;0.30;;;6.30;99.90;;;;;;5009124;28;20310;-86
2022/12/06 04:25:35;;;;;;;6.70;1.13;;;6.30;99.90;;;;;;5020550;28;20226;-84
2022/12/06 04:39:00;;;;;;;0.50;0.50;;;6.40;99.90;;;;;;5027958;28;20676;-86
2022/12/06 04:44:11;;;;;;;5.90;0.50;;;6.40;99.90;;;;;;5027670;28;20221;-88
2022/12/06 04:46:36;;;;;;;0.50;0.50;;;6.40;99.90;;;;;;5019747;28;20202;-84
2022/12/06 04:49:03;;;;;;;0.77;0.77;;;6.30;99.90;;;;;;5026601;28;20227;-86
2022/12/06 04:51:28;;;;;;;2.63;0.63;;;6.30;99.90;;;;;;5027075;28;20249;-85
2022/12/06 04:53:54;;;;;;;0.33;0.33;;;6.30;99.90;;;;;;5017429;28;20314;-86
2022/12/06 04:56:20;;;;;;;0.30;0.30;;;6.20;99.90;;;;;;5027829;28;20206;-88
2022/12/06 04:58:46;;;;;;;0.23;0.23;;;6.10;99.90;;;;;;5019640;28;20252;-82
2022/12/06 05:01:11;;;;;;;0.80;0.80;;;6.00;99.90;;;;;;5027039;28;20218;-85
2022/12/06 05:03:37;;;;;;;1.10;1.00;;;5.90;99.90;;;;;;5028031;28;20218;-86
2022/12/06 05:06:03;;;;;;;0.50;0.30;;;5.80;99.90;;;;;;5000318;28;20229;-84
2022/12/06 05:08:30;;;;;;;0.70;0.70;;;5.70;99.90;;;;;;5035163;28;20227;-88
2022/12/06 05:10:56;;;;;;;0.27;0.27;;;5.60;99.90;;;;;;5027913;28;20182;-86
2022/12/06 05:13:21;;;;;;;1.80;0.27;;;5.50;99.90;;;;;;5027543;28;20560;-83
2022/12/06 05:15:50;;;;;;;0.87;0.87;;;5.40;99.90;;;;;;5042953;28;20323;-85
2022/12/06 05:18:16;;;;;;;0.50;0.50;;;5.30;99.90;;;;;;5028155;28;20257;-86
2022/12/06 05:20:42;;;;;;;0.73;0.67;;;5.20;99.90;;;;;;5026622;28;20261;-88
2022/12/06 05:23:07;;;;;;;0.40;0.40;;;5.10;99.90;;;;;;5033247;28;20498;-86
2022/12/06 05:25:33;;;;;;;0.33;0.33;;;5.00;99.90;;;;;;5003234;28;20202;-85
2022/12/06 05:27:59;;;;;;;0.40;0.40;;;4.90;99.90;;;;;;5026964;28;20202;-86
2022/12/06 05:30:24;;;;;;;0.30;0.30;;;4.80;99.90;;;;;;5027228;28;20219;-86
2022/12/06 05:32:50;;;;;;;0.30;0.30;;;4.60;99.90;;;;;;5044082;28;20226;-85
2022/12/06 05:35:16;;;;;;;0.23;0.23;;;4.60;99.90;;;;;;5034783;28;20238;-83
2022/12/06 05:37:41;;;;;;;1.03;1.03;;;4.60;99.90;;;;;;5018098;28;20598;-87
2022/12/06 05:40:08;;;;;;;2.27;1.93;;;4.50;99.90;;;;;;5029128;28;20266;-90
2022/12/06 05:42:33;;;;;;;0.60;0.60;;;4.50;99.90;;;;;;5028303;28;20269;-88
2022/12/06 05:44:59;;;;;;;3.20;1.37;;;4.50;99.90;;;;;;5020521;28;20671;-88
2022/12/06 05:47:25;;;;;;;0.40;0.40;;;4.40;99.90;;;;;;5020131;28;20294;-88
2022/12/06 05:49:50;;;;;;;0.20;0.20;;;4.40;99.90;;;;;;5027918;28;20234;-89
2022/12/06 05:52:16;;;;;;;0.70;0.70;;;4.30;99.90;;;;;;5028800;28;20703;-88
2022/12/06 05:54:42;;;;;;;0.47;0.47;;;4.20;99.90;;;;;;5027785;28;21064;-88
2022/12/06 05:57:07;;;;;;;0.30;0.30;;;4.20;99.90;;;;;;5000719;28;20958;-87
2022/12/06 05:59:33;;;;;;;0.30;0.30;;;4.20;99.90;;;;;;5027136;28;20260;-87
2022/12/06 06:01:59;;;;;;;0.37;0.37;;;4.30;99.90;;;;;;5026649;28;20245;-88
2022/12/06 06:04:24;;;;;;;0.20;0.20;;;4.40;99.90;;;;;;5043598;28;21089;-89
2022/12/06 06:06:50;;;;;;;0.30;0.30;;;4.40;99.90;;;;;;5027033;28;20223;-87
2022/12/06 06:09:16;;;;;;;0.60;0.60;;;4.40;99.90;;;;;;5027529;28;20313;-91
2022/12/06 06:11:42;;;;;;;8.13;0.67;;;4.40;99.90;;;;;;5027781;28;20226;-87
2022/12/06 06:14:08;;;;;;;0.30;0.30;;;4.40;99.90;;;;;;5027663;28;20183;-88
2022/12/06 06:16:33;;;;;;;2.23;0.83;;;4.40;99.90;;;;;;5045608;28;20195;-88
2022/12/06 06:19:00;;;;;;;0.77;0.40;;;4.40;99.90;;;;;;5023271;28;20222;-88
2022/12/06 06:21:26;;;;;;;0.20;0.20;;;4.40;99.90;;;;;;5018112;28;20679;-89
2022/12/06 06:23:55;;;;;;;0.47;0.47;;;4.50;99.90;;;;;;5027390;28;20364;-87
2022/12/06 06:26:20;;;;;;;1.10;1.03;;;4.50;99.90;;;;;;5027165;28;20201;-87
2022/12/06 06:28:46;;;;;;;1.10;1.10;;;4.60;99.90;;;;;;5028137;28;20214;-91
2022/12/06 06:31:12;;;;;;;0.50;0.50;;;4.60;99.90;;;;;;5028817;28;20218;-89
2022/12/06 06:33:38;;;;;;;0.30;0.30;;;4.70;99.90;;;;;;5043958;28;20313;-88
2022/12/06 06:36:04;;;;;;;0.30;0.30;;;4.70;99.90;;;;;;5027263;28;20750;-87
2022/12/06 06:38:30;;;;;;;0.20;0.20;;;4.70;99.90;;;;;;5010650;28;20215;-87
2022/12/06 06:40:55;;;;;;;0.33;0.33;;;4.80;99.90;;;;;;5027759;28;20204;-88
2022/12/06 06:43:21;;;;;;;0.40;0.40;;;4.80;99.90;;;;;;5028414;28;20228;-89
2022/12/06 06:45:56;;;;;;;0.30;0.30;;;4.90;99.90;;;;;;5043370;28;20292;-89
2022/12/06 06:48:24;;;;;;;1.07;1.07;;;4.90;99.90;;;;;;5020296;28;20615;-87
2022/12/06 06:50:50;;;;;;;1.73;1.63;;;4.90;99.90;;;;;;5034168;28;20719;-87
2022/12/06 06:53:16;;;;;;;0.30;0.30;;;5.00;99.90;;;;;;5020601;28;20252;-89
2022/12/06 06:55:43;;;;;;;0.60;0.60;;;5.00;99.90;;;;;;5002148;28;20816;-88
2022/12/06 06:58:09;;;;;;;0.30;0.30;;;5.10;99.90;;;;;;5026536;28;20278;-87
2022/12/06 07:00:35;;;;;;;0.63;0.63;;;5.20;99.90;;;;;;5019572;28;20688;-88
2022/12/06 07:03:02;;;;;;;0.60;0.60;;;5.30;99.90;;;;;;5040332;28;20222;-88
2022/12/06 07:05:28;;;;;;;11.90;0.60;;;5.40;99.90;;;;;;5029428;28;20219;-89
2022/12/06 07:07:53;;;;;;;0.10;0.10;;;5.60;99.90;;;;;;5023636;28;20900;-87
2022/12/06 07:10:19;;;;;;;0.23;0.23;;;5.70;99.90;;;;;;5006335;28;20676;-89
2022/12/06 07:12:45;;;;;;;0.20;0.20;;;5.80;99.90;;;;;;5029537;28;20222;-89
2022/12/06 07:15:11;;;;;;;0.30;0.30;;;5.80;99.90;;;;;;5023047;28;20230;-89
2022/12/06 07:17:37;;;;;;;0.40;0.40;;;5.80;99.90;;;;;;5040438;28;20222;-89
2022/12/06 07:20:03;;;;;;;0.23;0.23;;;5.90;99.90;;;;;;5031934;28;20201;-89
2022/12/06 07:22:30;;;;;;;0.30;0.30;;;5.90;99.90;;;;;;5032649;28;20288;-90
2022/12/06 07:24:55;;;;;;;0.20;0.20;;;5.90;99.90;;;;;;5041282;28;20249;-88
2022/12/06 07:27:21;;;;;;;0.30;0.30;;;5.90;99.90;;;;;;5022965;28;21064;-87
2022/12/06 07:29:47;;;;;;;0.20;0.20;;;5.90;99.90;;;;;;5031396;28;20321;-90
2022/12/06 07:32:13;;;;;;;0.40;0.40;;;5.90;99.90;;;;;;5032347;28;20194;-88
2022/12/06 07:34:38;;;;;;;0.30;0.30;;;5.90;99.90;;;;;;5050405;28;20214;-87
2022/12/06 07:37:05;;;;;;;0.20;0.20;;;5.90;99.90;;;;;;5025098;28;20237;-88
2022/12/06 07:39:31;;;;;;;1.13;0.77;;;5.90;99.90;;;;;;5042322;28;20214;-89
2022/12/06 07:45:00;;;;;;;0.10;0.10;;;5.90;99.90;;;;;;5035708;28;20590;-88
2022/12/06 07:47:39;;;;;;;0.43;0.43;;;6.00;99.90;;;;;;5027298;28;20234;-88
2022/12/06 07:50:09;;;;;;;0.10;0.10;;;6.00;99.90;;;;;;5028646;28;20233;-89
2022/12/06 07:52:36;;;;;;;0.30;0.30;;;6.00;99.90;;;;;;5036372;28;20197;-90
2022/12/06 07:55:03;;;;;;;0.77;0.77;;;6.00;99.90;;;;;;5027440;28;20277;-88
2022/12/06 07:57:29;;;;;;;0.63;0.63;;;6.10;99.90;;;;;;5035166;28;20223;-88
2022/12/06 07:59:54;;;;;;;1.70;0.70;;;6.10;99.90;;;;;;5027317;28;20684;-88
2022/12/06 08:02:24;;;;;;;0.50;0.50;;;6.10;99.90;;;;;;5018744;28;20195;-88
2022/12/06 08:04:50;;;;;;;0.20;0.20;;;6.10;99.90;;;;;;5044305;28;20198;-89
2022/12/06 08:07:16;;;;;;;0.33;0.33;;;6.10;99.90;;;;;;5029098;28;20218;-88
2022/12/06 08:09:42;;;;;;;0.53;0.47;;;6.20;99.90;;;;;;5027853;28;20230;-86
2022/12/06 08:12:08;;;;;;;0.43;0.43;;;6.10;99.90;;;;;;5002447;28;20253;-87
2022/12/06 08:14:34;;;;;;;0.40;0.40;;;6.20;99.90;;;;;;5044080;28;20264;-88
2022/12/06 08:17:01;;;;;;;0.23;0.23;;;6.20;99.90;;;;;;5028151;28;20541;-87
2022/12/06 08:19:26;;;;;;;1.43;0.80;;;6.20;99.90;;;;;;5028642;28;20280;-91
2022/12/06 08:21:52;;;;;;;0.63;0.63;;;6.20;99.90;;;;;;5043968;28;20234;-87
2022/12/06 08:24:18;;;;;;;0.83;0.83;;;6.20;99.90;;;;;;5020464;28;20219;-87
2022/12/06 08:26:44;;;;;;;0.40;0.40;;;6.20;99.90;;;;;;5014287;28;21180;-87
2022/12/06 08:29:10;;;;;;;0.30;0.30;;;6.20;99.90;;;;;;5000225;28;20202;-88
2022/12/06 08:31:35;;;;;;;1.50;1.40;;;6.20;99.90;;;;;;4982792;28;20234;-88
2022/12/06 08:34:02;;;;;;;0.70;0.67;;;6.30;99.90;;;;;;4984258;28;20219;-85
2022/12/06 08:36:28;;;;;;;0.40;0.40;;;6.30;99.90;;;;;;5007636;28;20254;-86
2022/12/06 08:38:54;;;;;;;0.70;0.60;;;6.40;99.90;;;;;;4991867;28;20243;-88
2022/12/06 08:44:05;;;;;;;1.50;1.17;;;6.60;99.90;;;;;;5011283;28;20202;-89
2022/12/06 08:46:33;;;;;;;1.80;0.97;;;6.60;99.90;;;;;;5009026;28;20188;-86
2022/12/06 08:49:00;;;;;;;0.60;0.60;;;6.60;99.90;;;;;;5014732;28;20219;-88
2022/12/06 08:51:27;;;;;;;1.13;0.60;;;6.60;99.90;;;;;;4999618;28;20289;-85
2022/12/06 08:53:54;;;;;;;0.43;0.43;;;6.50;99.90;;;;;;5011863;28;20215;-88
2022/12/06 08:56:20;;;;;;;1.47;0.80;;;6.60;99.90;;;;;;5027767;28;20258;-92
2022/12/06 08:58:47;;;;;;;0.40;0.40;;;6.60;99.90;;;;;;5001531;28;20192;-89
2022/12/06 09:01:16;;;;;;;9.10;0.70;;;6.70;99.90;;;;;;5007197;28;20219;-89
2022/12/06 09:03:42;;;;;;;0.83;0.80;;;6.80;99.90;;;;;;5007131;28;20223;-90
2022/12/06 09:06:08;;;;;;;0.77;0.77;;;6.80;99.90;;;;;;4979130;28;20704;-90
2022/12/06 09:08:35;;;;;;;0.23;0.23;;;6.90;99.90;;;;;;4987861;28;20235;-89
2022/12/06 09:11:01;;;;;;;0.60;0.60;;;6.90;99.90;;;;;;5004746;28;20190;-89
2022/12/06 09:13:26;;;;;;;0.87;0.87;;;7.00;99.90;;;;;;5005021;28;20309;-89
2022/12/06 09:15:52;;;;;;;0.60;0.60;;;7.00;99.90;;;;;;5020530;28;20231;-89
2022/12/06 09:18:18;;;;;;;0.40;0.40;;;6.90;99.90;;;;;;4986881;28;20211;-89
2022/12/06 09:20:43;;;;;;;1.70;0.57;;;6.90;99.90;;;;;;4996301;28;20223;-92
2022/12/06 09:23:09;;;;;;;0.77;0.77;;;6.90;99.90;;;;;;5003258;28;20191;-89
2022/12/06 09:25:35;;;;;;;0.50;0.50;;;6.90;99.90;;;;;;4988666;28;20194;-90
2022/12/06 09:28:02;;;;;;;2.60;2.30;;;6.90;99.90;;;;;;4989782;28;20234;-91
2022/12/06 09:30:28;;;;;;;0.50;0.50;;;7.00;99.90;;;;;;5003467;28;20223;-90
2022/12/06 09:32:53;;;;;;;2.33;1.43;;;7.00;99.90;;;;;;4987166;28;20219;-91
2022/12/06 09:35:20;;;;;;;0.60;0.60;;;7.10;99.90;;;;;;4993470;28;20281;-87
2022/12/06 09:37:47;;;;;;;1.80;1.60;;;7.20;99.90;;;;;;5011179;28;20700;-87
2022/12/06 09:40:29;;;;;;;7.20;1.37;;;7.30;99.90;;;;;;5002449;28;20322;-87
2022/12/06 09:43:26;;;;;;;0.60;0.60;;;7.30;99.90;;;;;;5003624;28;20222;-85
2022/12/06 09:45:52;;;;;;;0.50;0.50;;;7.20;99.90;;;;;;5002373;28;20760;-86
2022/12/06 09:48:30;;;;;;;0.70;0.70;;;7.20;99.90;;;;;;5003350;28;20230;-89
2022/12/06 09:51:01;;;;;;;0.97;0.73;;;7.10;99.90;;;;;;5003687;28;20304;-88
2022/12/06 09:53:49;;;;;;;1.47;1.37;;;7.00;99.90;;;;;;5002924;28;20285;-88
2022/12/06 09:56:41;;;;;;;0.60;0.60;;;6.90;99.90;;;;;;5002145;28;20290;-86
2022/12/06 09:59:38;;;;;;;1.50;1.43;;;6.80;99.90;;;;;;5003776;28;20187;-87
2022/12/06 10:02:32;;;;;;;0.83;0.80;;;6.90;99.90;;;;;;5035244;28;20191;-84
2022/12/06 10:05:39;;;;;;;1.53;1.43;;;6.90;99.90;;;;;;5004281;28;20201;-92
2022/12/06 10:08:42;;;;;;;1.20;1.20;;;6.90;99.90;;;;;;5005355;28;20218;-89
2022/12/06 10:11:19;;;;;;;1.13;1.13;;;6.80;99.90;;;;;;5023948;28;20304;-87
2022/12/06 10:14:26;;;;;;;0.43;0.30;;;6.80;99.90;;;;;;5024887;28;20175;-88
2022/12/06 10:17:29;;;;;;;0.30;0.30;;;6.80;99.90;;;;;;5024320;28;20281;-88
2022/12/06 10:20:10;;;;;;;0.53;0.53;;;6.90;99.90;;;;;;5024080;28;20292;-88
2022/12/06 10:22:59;;;;;;;8.80;0.53;;;7.20;99.90;;;;;;5026231;28;20222;-89
2022/12/06 10:25:42;;;;;;;0.97;0.97;;;7.50;99.90;;;;;;5007639;28;20226;-89
2022/12/06 10:28:20;;;;;;;1.23;1.13;;;7.70;99.90;;;;;;5030185;28;20341;-88
2022/12/06 10:31:00;;;;;;;0.30;0.30;;;7.70;99.90;;;;;;5022649;28;20226;-89
2022/12/06 10:33:52;;;;;;;2.30;1.53;;;7.80;99.90;;;;;;5037196;28;20214;-88
2022/12/06 10:36:43;;;;;;;0.70;0.70;;;7.80;99.90;;;;;;5033586;28;20230;-90
2022/12/06 10:39:14;;;;;;;0.83;0.37;;;7.90;99.90;;;;;;5025359;28;20234;-90
2022/12/06 10:41:50;;;;;;;1.17;0.70;;;8.10;99.90;;;;;;5026672;28;20264;-89
2022/12/06 10:44:24;;;;;;;1.43;0.80;;;8.10;99.90;;;;;;5024662;28;20804;-88
2022/12/06 10:47:36;;;;;;;0.33;0.33;;;8.30;99.90;;;;;;5026384;28;20544;-90
2022/12/06 10:50:15;;;;;;;0.20;0.20;;;8.20;99.90;;;;;;4984418;28;20325;-90
2022/12/06 10:53:16;;;;;;;0.40;0.40;;;8.20;99.90;;;;;;4978848;28;20207;-89
2022/12/06 10:55:59;;;;;;;0.80;0.80;;;8.10;99.90;;;;;;4985734;28;20228;-89
2022/12/06 10:58:37;;;;;;;3.80;1.70;;;8.20;99.90;;;;;;5007633;28;20223;-90
2022/12/06 11:01:23;;;;;;;0.50;0.50;;;8.20;99.90;;;;;;4991942;28;20216;-87
2022/12/06 11:04:01;;;;;;;0.57;0.57;;;8.30;99.90;;;;;;4988958;28;20216;-88
2022/12/06 11:06:44;;;;;;;0.70;0.70;;;8.20;99.90;;;;;;4990350;28;20234;-90
2022/12/06 11:09:19;;;;;;;0.63;0.63;;;8.20;99.90;;;;;;4991908;28;20216;-87
2022/12/06 11:11:45;;;;;;;0.43;0.40;;;8.20;99.90;;;;;;5015716;28;20238;-87
2022/12/06 11:14:37;;;;;;;0.63;0.60;;;8.20;99.90;;;;;;4988001;28;20205;-88
2022/12/06 11:17:10;;;;;;;1.27;0.70;;;8.20;99.90;;;;;;4981277;28;20199;-87
2022/12/06 11:19:47;;;;;;;0.30;0.30;;;8.20;99.90;;;;;;4987983;28;20220;-86
2022/12/06 11:22:15;;;;;;;0.30;0.30;;;8.10;99.90;;;;;;4986114;28;20227;-87
2022/12/06 11:24:55;;;;;;;1.33;0.50;;;7.90;99.90;;;;;;4986598;28;20361;-87
2022/12/06 11:27:32;;;;;;;0.60;0.60;;;7.80;99.90;;;;;;4987727;28;20575;-85
2022/12/06 11:29:58;;;;;;;0.50;0.50;;;7.70;99.90;;;;;;4987967;28;20216;-89
2022/12/06 11:32:24;;;;;;;0.40;0.40;;;7.70;99.90;;;;;;4987629;28;20224;-87
2022/12/06 11:34:56;;;;;;;0.43;0.40;;;7.70;99.90;;;;;;4988661;28;20269;-89
2022/12/06 11:37:33;;;;;;;0.63;0.63;;;7.80;99.90;;;;;;5020436;28;20231;-86
2022/12/06 11:40:06;;;;;;;0.60;0.37;;;7.70;99.90;;;;;;4980140;28;20559;-91
2022/12/06 11:42:32;;;;;;;1.40;1.30;;;7.80;99.90;;;;;;4989039;28;20586;-88
2022/12/06 11:45:18;;;;;;;1.23;0.80;;;7.80;99.90;;;;;;4987678;28;20228;-86
2022/12/06 11:47:45;;;;;;;1.40;0.70;;;7.80;99.90;;;;;;4987421;28;20271;-85
2022/12/06 11:50:17;;;;;;;1.00;0.70;;;7.90;99.90;;;;;;5009161;28;20751;-85
2022/12/06 11:52:48;;;;;;;8.87;4.07;;;7.90;99.90;;;;;;5008897;28;20201;-84
2022/12/06 11:55:24;;;;;;;2.70;1.63;;;8.00;99.90;;;;;;5014567;28;20231;-86
2022/12/06 11:57:56;;;;;;;1.13;1.03;;;8.20;99.90;;;;;;5006840;28;20292;-85
2022/12/06 12:00:25;;;;;;;1.93;0.93;;;8.40;99.90;;;;;;5006739;28;20222;-85
2022/12/06 12:02:53;;;;;;;0.67;0.67;;;8.50;99.90;;;;;;5007455;28;20261;-85
2022/12/06 12:05:20;;;;;;;2.03;1.87;;;8.60;99.90;;;;;;5006556;28;20190;-86
2022/12/06 12:07:56;;;;;;;6.37;4.60;;;8.60;99.90;;;;;;5009023;28;20579;-88
2022/12/06 12:10:33;;;;;;;1.53;0.97;;;8.50;99.90;;;;;;5039971;28;20219;-87
2022/12/06 12:13:44;;;;;;;0.67;0.60;;;8.50;99.90;;;;;;5006852;28;20225;-84
2022/12/06 12:16:28;;;;;;;2.20;2.00;;;8.70;99.90;;;;;;5006994;28;20336;-89
2022/12/06 12:19:22;;;;;;;1.67;0.70;;;8.70;99.90;;;;;;5008090;28;20219;-87
2022/12/06 12:21:48;;;;;;;5.33;3.87;;;8.60;99.90;;;;;;5030856;28;20867;-91
2022/12/06 12:24:44;;;;;;;0.20;0.20;;;8.60;99.90;;;;;;5006837;28;20227;-85
2022/12/06 12:27:38;;;;;;;1.30;1.23;;;8.60;99.90;;;;;;5006249;28;20244;-87
2022/12/06 12:30:22;;;;;;;0.40;0.40;;;8.50;99.90;;;;;;5013374;28;20223;-86
2022/12/06 12:32:51;;;;;;;0.53;0.20;;;8.30;99.90;;;;;;5006734;28;20561;-85
2022/12/06 12:35:20;;;;;;;0.30;0.30;;;8.40;99.90;;;;;;5006095;28;20884;-83
2022/12/06 12:37:50;;;;;;;0.40;0.40;;;8.40;99.90;;;;;;5006473;28;20195;-86
2022/12/06 12:40:32;;;;;;;0.20;0.20;;;8.40;99.90;;;;;;5005412;28;20227;-84
2022/12/06 12:43:10;;;;;;;0.33;0.30;;;8.40;99.90;;;;;;5006783;28;20218;-88
2022/12/06 12:45:39;;;;;;;0.30;0.30;;;8.50;99.90;;;;;;5016358;28;20234;-89
2022/12/06 12:48:23;;;;;;;0.60;0.60;;;8.50;99.90;;;;;;5011730;28;21400;-86
2022/12/06 12:50:55;;;;;;;0.20;0.20;;;8.50;99.90;;;;;;5013603;28;20231;-85
2022/12/06 12:53:34;;;;;;;0.20;0.20;;;8.50;99.90;;;;;;5005621;28;20695;-88
2022/12/06 12:56:08;;;;;;;0.40;0.40;;;8.50;99.90;;;;;;5007453;28;21129;-87
2022/12/06 12:58:34;;;;;;;0.30;0.30;;;8.50;99.90;;;;;;5032739;28;21123;-86
2022/12/06 13:01:11;;;;;;;1.00;0.67;;;8.70;99.90;;;;;;5026702;28;20297;-88
2022/12/06 13:03:37;;;;;;;0.30;0.30;;;8.90;99.90;;;;;;5026781;28;20241;-87
2022/12/06 13:06:04;;;;;;;0.20;0.20;;;8.90;99.90;;;;;;5025158;28;20215;-87
2022/12/06 13:08:34;;;;;;;0.60;0.60;;;9.00;99.90;;;;;;5041023;28;20242;-84
2022/12/06 13:11:03;;;;;;;7.30;0.47;;;8.90;99.90;;;;;;5025454;28;20972;-83
2022/12/06 13:13:39;;;;;;;0.50;0.50;;;8.90;99.90;;;;;;5010961;28;20351;-88
2022/12/06 13:16:11;;;;;;;0.23;0.23;;;9.00;99.90;;;;;;5023921;28;20222;-90
2022/12/06 13:18:50;;;;;;;3.27;0.60;;;9.10;99.90;;;;;;5027968;28;20224;-90
2022/12/06 13:21:35;;;;;;;0.37;0.37;;;9.00;99.90;;;;;;5026301;28;20714;-88
2022/12/06 13:24:25;;;;;;;0.20;0.20;;;8.80;99.90;;;;;;5026149;28;20219;-88
2022/12/06 13:27:03;;;;;;;0.30;0.30;;;8.80;99.90;;;;;;5029305;28;20241;-91
2022/12/06 13:29:54;;;;;;;4.87;0.57;;;8.80;99.90;;;;;;5042826;28;20225;-91
2022/12/06 13:32:28;;;;;;;2.30;1.10;;;8.80;99.90;;;;;;5025526;28;20179;-91
2022/12/06 13:35:03;;;;;;;1.60;1.43;;;8.80;99.90;;;;;;5025524;28;20427;-91
2022/12/06 13:37:42;;;;;;;1.37;1.27;;;8.80;99.90;;;;;;5026069;28;20214;-91
2022/12/06 13:40:38;;;;;;;0.80;0.70;;;8.80;99.90;;;;;;5026959;28;20226;-91
2022/12/06 13:43:25;;;;;;;4.93;0.80;;;8.70;99.90;;;;;;5042566;28;20221;-90
2022/12/06 13:46:11;;;;;;;10.50;4.67;;;8.60;99.90;;;;;;5026423;28;20598;-92